Raasta, Sweden

8:39 AM CET on November 26, 2014 (GMT +0100)
Bydalen | Change Station
CLOSE
Current Station
Personal Weather Station
Location: Sundsvall, VASTERNORRLAND
Elevation: 290 ft
Nearby Weather Stations

Elev 290 ft 62.42 °N, 17.33 °E | Updated 48 seconds ago

Clear
Clear
32.5 °F
Feels Like 32 °F
N
0.0
Wind Variable Wind from North
Gusts 2.0 mph

Today
High -- | Low -- °F
--% Chance of Precip.
Yesterday
High -- | Low -- °F
Precip. -- in
8:35 AM 2:39 PM
Waxing Crescent, 17% visible
Pressure 30.27 in
Visibility -9999.0 miles
Clouds
Windchill 32 °F
Dew Point 30 °F
Humidity 91%
Rainfall 0.00 in
Snow Depth Not available.
UV Not available.
Pollen Not available.
Air Quality Not available.
Flu Activity Not available.
METAR ESNN 260720Z VRB02KT CAVOK M05/M05 Q1025 R16/79//55

More Conditions Fewer Conditions

Pressure 30.27 in
Visibility -9999.0 miles
Clouds
Windchill 32 °F
Dew Point 30 °F
Humidity 91%
Rainfall 0.00 in
Snow Depth Not available.
UV Not available.
Pollen Not available.
Air Quality Not available.
Flu Activity Not available.
METAR ESNN 260720Z VRB02KT CAVOK M05/M05 Q1025 R16/79//55

More Conditions Fewer Conditions

10-Day Weather Forecast

Almanac

Astronomy

Nov. 26, 2014 Rise Set
Actual Time
Civil Twilight
Nautical Twilight
Astronomical Twilight
Moon
Length of Visible Light
Length of Day
Tomorrow will be .
, % of the Moon is Illuminated

Today's Extremes

Country Highs Country Lows

Community

WunderPhotos

Upload Photos

1,773,694 photos uploaded!

WunderBlogs® & News

Nearby

Air Quality

  Air Quality AQ Index Pollutant
Not available.

Snow Depth

Station Depth Elevation

Earthquake Activity

City Distance Mag. Time & Date
Minimum magnitude displayed is 2.5.

Coastal Water Temperatures

Place Temperature

Nearby Weather Stations